sensor_id;sensor_type;location;lat;lon;timestamp;P1;durP1;ratioP1;P2;durP2;ratioP2
49023;SDS011;34839;-33.872;151.172;2022-10-31T00:00:07;9.73;;;1.50;;
49023;SDS011;34839;-33.872;151.172;2022-10-31T00:02:35;5.10;;;1.35;;
49023;SDS011;34839;-33.872;151.172;2022-10-31T00:05:02;6.72;;;1.23;;
49023;SDS011;34839;-33.872;151.172;2022-10-31T00:07:29;7.38;;;1.00;;
49023;SDS011;34839;-33.872;151.172;2022-10-31T00:09:56;5.07;;;0.88;;
49023;SDS011;34839;-33.872;151.172;2022-10-31T00:12:24;5.50;;;0.90;;
49023;SDS011;34839;-33.872;151.172;2022-10-31T00:14:51;6.25;;;0.85;;
49023;SDS011;34839;-33.872;151.172;2022-10-31T00:17:18;4.97;;;1.13;;
49023;SDS011;34839;-33.872;151.172;2022-10-31T00:19:45;6.55;;;1.00;;
49023;SDS011;34839;-33.872;151.172;2022-10-31T00:22:12;2.65;;;0.73;;
49023;SDS011;34839;-33.872;151.172;2022-10-31T00:24:40;3.08;;;0.98;;
49023;SDS011;34839;-33.872;151.172;2022-10-31T00:27:07;4.38;;;0.90;;
49023;SDS011;34839;-33.872;151.172;2022-10-31T00:29:34;3.05;;;0.88;;
49023;SDS011;34839;-33.872;151.172;2022-10-31T00:32:01;4.05;;;1.02;;
49023;SDS011;34839;-33.872;151.172;2022-10-31T00:34:28;8.13;;;1.15;;
49023;SDS011;34839;-33.872;151.172;2022-10-31T00:36:56;16.50;;;2.15;;
49023;SDS011;34839;-33.872;151.172;2022-10-31T00:39:23;9.93;;;2.40;;
49023;SDS011;34839;-33.872;151.172;2022-10-31T00:41:50;11.13;;;2.25;;
49023;SDS011;34839;-33.872;151.172;2022-10-31T00:44:17;6.78;;;1.50;;
49023;SDS011;34839;-33.872;151.172;2022-10-31T00:46:44;7.55;;;2.10;;
49023;SDS011;34839;-33.872;151.172;2022-10-31T00:49:12;10.43;;;2.20;;
49023;SDS011;34839;-33.872;151.172;2022-10-31T00:51:39;12.35;;;2.58;;
49023;SDS011;34839;-33.872;151.172;2022-10-31T00:54:06;13.65;;;2.63;;
49023;SDS011;34839;-33.872;151.172;2022-10-31T00:56:33;21.27;;;4.03;;
49023;SDS011;34839;-33.872;151.172;2022-10-31T00:59:00;15.73;;;3.55;;
49023;SDS011;34839;-33.872;151.172;2022-10-31T01:01:27;15.13;;;3.08;;
49023;SDS011;34839;-33.872;151.172;2022-10-31T01:03:55;17.58;;;3.40;;
49023;SDS011;34839;-33.872;151.172;2022-10-31T01:06:22;9.52;;;1.70;;
49023;SDS011;34839;-33.872;151.172;2022-10-31T01:08:49;11.25;;;2.60;;
49023;SDS011;34839;-33.872;151.172;2022-10-31T01:11:17;10.60;;;2.78;;
49023;SDS011;34839;-33.872;151.172;2022-10-31T01:13:45;14.77;;;3.03;;
49023;SDS011;34839;-33.872;151.172;2022-10-31T01:16:14;13.30;;;3.22;;
49023;SDS011;34839;-33.872;151.172;2022-10-31T01:18:41;13.82;;;2.40;;
49023;SDS011;34839;-33.872;151.172;2022-10-31T01:21:10;12.07;;;2.60;;
49023;SDS011;34839;-33.872;151.172;2022-10-31T01:23:38;4.88;;;1.00;;
49023;SDS011;34839;-33.872;151.172;2022-10-31T01:26:07;6.25;;;1.30;;
49023;SDS011;34839;-33.872;151.172;2022-10-31T01:28:35;1.25;;;0.60;;
49023;SDS011;34839;-33.872;151.172;2022-10-31T01:31:06;3.97;;;1.10;;
49023;SDS011;34839;-33.872;151.172;2022-10-31T01:33:34;4.22;;;1.38;;
49023;SDS011;34839;-33.872;151.172;2022-10-31T01:36:01;7.10;;;0.93;;
49023;SDS011;34839;-33.872;151.172;2022-10-31T01:38:37;2.92;;;1.00;;
49023;SDS011;34839;-33.872;151.172;2022-10-31T01:41:04;4.43;;;1.17;;
49023;SDS011;34839;-33.872;151.172;2022-10-31T01:43:51;4.40;;;1.10;;
49023;SDS011;34839;-33.872;151.172;2022-10-31T01:46:20;7.93;;;1.20;;
49023;SDS011;34839;-33.872;151.172;2022-10-31T01:48:48;2.60;;;0.90;;
49023;SDS011;34839;-33.872;151.172;2022-10-31T01:51:17;7.07;;;1.27;;
49023;SDS011;34839;-33.872;151.172;2022-10-31T01:53:44;2.97;;;0.90;;
49023;SDS011;34839;-33.872;151.172;2022-10-31T01:56:13;6.47;;;1.08;;
49023;SDS011;34839;-33.872;151.172;2022-10-31T01:58:40;7.47;;;1.33;;
49023;SDS011;34839;-33.872;151.172;2022-10-31T02:01:08;6.45;;;1.20;;
49023;SDS011;34839;-33.872;151.172;2022-10-31T02:03:36;7.15;;;1.17;;
49023;SDS011;34839;-33.872;151.172;2022-10-31T02:06:03;8.48;;;0.90;;
49023;SDS011;34839;-33.872;151.172;2022-10-31T02:08:33;23.20;;;1.88;;
49023;SDS011;34839;-33.872;151.172;2022-10-31T02:11:00;15.65;;;1.20;;
49023;SDS011;34839;-33.872;151.172;2022-10-31T02:13:28;13.88;;;1.30;;
49023;SDS011;34839;-33.872;151.172;2022-10-31T02:15:57;15.07;;;1.00;;
49023;SDS011;34839;-33.872;151.172;2022-10-31T02:18:25;10.00;;;0.65;;
49023;SDS011;34839;-33.872;151.172;2022-10-31T02:33:59;5.53;;;0.70;;
49023;SDS011;34839;-33.872;151.172;2022-10-31T02:47:03;5.13;;;0.40;;
49023;SDS011;34839;-33.872;151.172;2022-10-31T02:52:18;3.15;;;0.65;;
49023;SDS011;34839;-33.872;151.172;2022-10-31T02:54:46;4.27;;;0.63;;
49023;SDS011;34839;-33.872;151.172;2022-10-31T02:57:13;4.85;;;0.70;;
49023;SDS011;34839;-33.872;151.172;2022-10-31T02:59:54;4.90;;;0.90;;
49023;SDS011;34839;-33.872;151.172;2022-10-31T03:02:32;5.32;;;0.70;;
49023;SDS011;34839;-33.872;151.172;2022-10-31T03:05:04;5.28;;;0.77;;
49023;SDS011;34839;-33.872;151.172;2022-10-31T03:10:24;3.22;;;0.65;;
49023;SDS011;34839;-33.872;151.172;2022-10-31T03:15:30;3.10;;;0.60;;
49023;SDS011;34839;-33.872;151.172;2022-10-31T03:20:29;3.95;;;1.50;;
49023;SDS011;34839;-33.872;151.172;2022-10-31T03:22:57;4.30;;;0.95;;
49023;SDS011;34839;-33.872;151.172;2022-10-31T03:25:26;4.20;;;0.65;;
49023;SDS011;34839;-33.872;151.172;2022-10-31T03:27:54;4.50;;;0.90;;
49023;SDS011;34839;-33.872;151.172;2022-10-31T03:30:22;2.35;;;0.98;;
49023;SDS011;34839;-33.872;151.172;2022-10-31T03:32:51;4.03;;;0.80;;
49023;SDS011;34839;-33.872;151.172;2022-10-31T03:35:19;2.05;;;0.80;;
49023;SDS011;34839;-33.872;151.172;2022-10-31T03:37:47;4.78;;;0.73;;
49023;SDS011;34839;-33.872;151.172;2022-10-31T03:40:15;5.10;;;0.70;;
49023;SDS011;34839;-33.872;151.172;2022-10-31T03:42:43;3.40;;;0.90;;
49023;SDS011;34839;-33.872;151.172;2022-10-31T03:45:14;4.75;;;0.77;;
49023;SDS011;34839;-33.872;151.172;2022-10-31T03:47:43;4.07;;;0.90;;
49023;SDS011;34839;-33.872;151.172;2022-10-31T03:50:11;4.45;;;0.73;;
49023;SDS011;34839;-33.872;151.172;2022-10-31T03:57:49;2.42;;;0.50;;
49023;SDS011;34839;-33.872;151.172;2022-10-31T04:00:17;3.33;;;0.70;;
49023;SDS011;34839;-33.872;151.172;2022-10-31T04:02:47;3.08;;;1.02;;
49023;SDS011;34839;-33.872;151.172;2022-10-31T04:05:16;5.00;;;1.13;;
49023;SDS011;34839;-33.872;151.172;2022-10-31T04:07:45;4.00;;;0.70;;
49023;SDS011;34839;-33.872;151.172;2022-10-31T04:10:14;3.22;;;0.82;;
49023;SDS011;34839;-33.872;151.172;2022-10-31T04:12:42;2.53;;;0.60;;
49023;SDS011;34839;-33.872;151.172;2022-10-31T04:15:11;2.83;;;0.88;;
49023;SDS011;34839;-33.872;151.172;2022-10-31T04:17:40;2.20;;;0.98;;
49023;SDS011;34839;-33.872;151.172;2022-10-31T04:20:09;14.85;;;1.40;;
49023;SDS011;34839;-33.872;151.172;2022-10-31T04:22:36;3.45;;;0.70;;
49023;SDS011;34839;-33.872;151.172;2022-10-31T04:25:03;4.30;;;0.80;;
49023;SDS011;34839;-33.872;151.172;2022-10-31T04:27:31;7.03;;;0.98;;
49023;SDS011;34839;-33.872;151.172;2022-10-31T04:29:58;1.77;;;0.60;;
49023;SDS011;34839;-33.872;151.172;2022-10-31T04:32:25;3.70;;;0.70;;
49023;SDS011;34839;-33.872;151.172;2022-10-31T04:34:52;1.52;;;0.60;;
49023;SDS011;34839;-33.872;151.172;2022-10-31T04:37:19;2.55;;;0.60;;
49023;SDS011;34839;-33.872;151.172;2022-10-31T04:39:47;0.95;;;0.40;;
49023;SDS011;34839;-33.872;151.172;2022-10-31T04:42:14;2.22;;;0.30;;
49023;SDS011;34839;-33.872;151.172;2022-10-31T04:44:41;10.15;;;1.00;;
49023;SDS011;34839;-33.872;151.172;2022-10-31T04:47:08;5.38;;;0.80;;
49023;SDS011;34839;-33.872;151.172;2022-10-31T04:49:36;3.25;;;0.90;;
49023;SDS011;34839;-33.872;151.172;2022-10-31T04:52:03;3.90;;;0.77;;
49023;SDS011;34839;-33.872;151.172;2022-10-31T04:54:30;3.88;;;0.80;;
49023;SDS011;34839;-33.872;151.172;2022-10-31T04:56:57;3.55;;;0.60;;
49023;SDS011;34839;-33.872;151.172;2022-10-31T04:59:25;1.13;;;0.52;;
49023;SDS011;34839;-33.872;151.172;2022-10-31T05:01:52;1.17;;;0.55;;
49023;SDS011;34839;-33.872;151.172;2022-10-31T05:04:19;7.45;;;0.45;;
49023;SDS011;34839;-33.872;151.172;2022-10-31T05:06:46;7.32;;;0.70;;
49023;SDS011;34839;-33.872;151.172;2022-10-31T05:09:13;5.95;;;1.20;;
49023;SDS011;34839;-33.872;151.172;2022-10-31T05:11:41;2.83;;;0.90;;
49023;SDS011;34839;-33.872;151.172;2022-10-31T05:14:08;1.42;;;0.60;;
49023;SDS011;34839;-33.872;151.172;2022-10-31T05:16:35;2.92;;;0.57;;
49023;SDS011;34839;-33.872;151.172;2022-10-31T05:19:02;2.38;;;0.50;;
49023;SDS011;34839;-33.872;151.172;2022-10-31T05:21:29;1.50;;;0.50;;
49023;SDS011;34839;-33.872;151.172;2022-10-31T05:23:57;3.83;;;0.85;;
49023;SDS011;34839;-33.872;151.172;2022-10-31T05:26:24;8.40;;;1.42;;
49023;SDS011;34839;-33.872;151.172;2022-10-31T05:28:51;4.68;;;0.75;;
49023;SDS011;34839;-33.872;151.172;2022-10-31T05:31:18;1.02;;;0.50;;
49023;SDS011;34839;-33.872;151.172;2022-10-31T05:33:45;5.13;;;0.85;;
49023;SDS011;34839;-33.872;151.172;2022-10-31T05:36:15;1.48;;;0.50;;
49023;SDS011;34839;-33.872;151.172;2022-10-31T05:38:43;5.13;;;0.40;;
49023;SDS011;34839;-33.872;151.172;2022-10-31T05:41:10;6.28;;;0.90;;
49023;SDS011;34839;-33.872;151.172;2022-10-31T05:43:37;1.65;;;0.52;;
49023;SDS011;34839;-33.872;151.172;2022-10-31T05:46:04;4.07;;;0.80;;
49023;SDS011;34839;-33.872;151.172;2022-10-31T05:48:31;3.63;;;0.70;;
49023;SDS011;34839;-33.872;151.172;2022-10-31T05:50:59;1.98;;;0.60;;
49023;SDS011;34839;-33.872;151.172;2022-10-31T05:53:26;0.55;;;0.30;;
49023;SDS011;34839;-33.872;151.172;2022-10-31T05:55:53;1.48;;;0.40;;
49023;SDS011;34839;-33.872;151.172;2022-10-31T05:58:20;2.08;;;0.70;;
49023;SDS011;34839;-33.872;151.172;2022-10-31T06:00:47;7.05;;;0.85;;
49023;SDS011;34839;-33.872;151.172;2022-10-31T06:03:15;1.88;;;0.60;;
49023;SDS011;34839;-33.872;151.172;2022-10-31T06:05:42;3.05;;;0.70;;
49023;SDS011;34839;-33.872;151.172;2022-10-31T06:08:10;1.60;;;0.60;;
49023;SDS011;34839;-33.872;151.172;2022-10-31T06:10:37;4.68;;;1.55;;
49023;SDS011;34839;-33.872;151.172;2022-10-31T06:13:04;0.98;;;0.43;;
49023;SDS011;34839;-33.872;151.172;2022-10-31T06:15:32;3.00;;;1.00;;
49023;SDS011;34839;-33.872;151.172;2022-10-31T06:18:03;3.33;;;0.70;;
49023;SDS011;34839;-33.872;151.172;2022-10-31T06:20:30;4.28;;;0.55;;
49023;SDS011;34839;-33.872;151.172;2022-10-31T06:22:58;3.17;;;0.70;;
49023;SDS011;34839;-33.872;151.172;2022-10-31T06:25:25;1.13;;;0.47;;
49023;SDS011;34839;-33.872;151.172;2022-10-31T06:27:52;4.38;;;0.47;;
49023;SDS011;34839;-33.872;151.172;2022-10-31T06:30:19;2.47;;;0.65;;
49023;SDS011;34839;-33.872;151.172;2022-10-31T06:32:47;2.08;;;0.40;;
49023;SDS011;34839;-33.872;151.172;2022-10-31T06:35:15;2.38;;;0.50;;
49023;SDS011;34839;-33.872;151.172;2022-10-31T06:37:43;4.38;;;0.63;;
49023;SDS011;34839;-33.872;151.172;2022-10-31T06:40:17;2.75;;;0.63;;
49023;SDS011;34839;-33.872;151.172;2022-10-31T06:42:44;4.72;;;0.70;;
49023;SDS011;34839;-33.872;151.172;2022-10-31T06:45:11;1.13;;;0.60;;
49023;SDS011;34839;-33.872;151.172;2022-10-31T06:47:38;7.72;;;0.55;;
49023;SDS011;34839;-33.872;151.172;2022-10-31T06:50:06;1.60;;;0.45;;
49023;SDS011;34839;-33.872;151.172;2022-10-31T06:52:33;0.95;;;0.57;;
49023;SDS011;34839;-33.872;151.172;2022-10-31T06:55:00;2.92;;;0.70;;
49023;SDS011;34839;-33.872;151.172;2022-10-31T06:57:27;3.05;;;0.80;;
49023;SDS011;34839;-33.872;151.172;2022-10-31T06:59:55;2.30;;;0.65;;
49023;SDS011;34839;-33.872;151.172;2022-10-31T07:02:22;8.75;;;1.23;;
49023;SDS011;34839;-33.872;151.172;2022-10-31T07:04:49;4.22;;;1.17;;
49023;SDS011;34839;-33.872;151.172;2022-10-31T07:07:16;1.23;;;0.60;;
49023;SDS011;34839;-33.872;151.172;2022-10-31T07:09:46;2.42;;;0.88;;
49023;SDS011;34839;-33.872;151.172;2022-10-31T07:12:15;3.80;;;0.80;;
49023;SDS011;34839;-33.872;151.172;2022-10-31T07:14:42;1.00;;;0.60;;
49023;SDS011;34839;-33.872;151.172;2022-10-31T07:17:09;1.83;;;0.75;;
49023;SDS011;34839;-33.872;151.172;2022-10-31T07:19:36;2.47;;;0.70;;
49023;SDS011;34839;-33.872;151.172;2022-10-31T07:22:04;2.67;;;0.77;;
49023;SDS011;34839;-33.872;151.172;2022-10-31T07:24:31;1.48;;;0.50;;
49023;SDS011;34839;-33.872;151.172;2022-10-31T07:26:58;1.77;;;0.70;;
49023;SDS011;34839;-33.872;151.172;2022-10-31T07:29:25;6.50;;;0.90;;
49023;SDS011;34839;-33.872;151.172;2022-10-31T07:31:52;2.38;;;0.60;;
49023;SDS011;34839;-33.872;151.172;2022-10-31T07:34:19;3.20;;;0.80;;
49023;SDS011;34839;-33.872;151.172;2022-10-31T07:36:47;3.33;;;0.90;;
49023;SDS011;34839;-33.872;151.172;2022-10-31T07:39:14;2.05;;;0.80;;
49023;SDS011;34839;-33.872;151.172;2022-10-31T07:41:41;4.25;;;0.80;;
49023;SDS011;34839;-33.872;151.172;2022-10-31T07:44:08;3.70;;;1.10;;
49023;SDS011;34839;-33.872;151.172;2022-10-31T07:46:35;1.77;;;0.90;;
49023;SDS011;34839;-33.872;151.172;2022-10-31T07:49:03;2.83;;;0.98;;
49023;SDS011;34839;-33.872;151.172;2022-10-31T07:51:30;2.47;;;0.90;;
49023;SDS011;34839;-33.872;151.172;2022-10-31T07:53:57;1.73;;;0.80;;
49023;SDS011;34839;-33.872;151.172;2022-10-31T07:56:24;1.40;;;0.73;;
49023;SDS011;34839;-33.872;151.172;2022-10-31T07:58:51;2.15;;;1.02;;
49023;SDS011;34839;-33.872;151.172;2022-10-31T08:01:18;11.73;;;1.20;;
49023;SDS011;34839;-33.872;151.172;2022-10-31T08:03:46;2.85;;;0.80;;
49023;SDS011;34839;-33.872;151.172;2022-10-31T08:06:13;1.88;;;1.00;;
49023;SDS011;34839;-33.872;151.172;2022-10-31T08:08:40;2.75;;;0.80;;
49023;SDS011;34839;-33.872;151.172;2022-10-31T08:11:07;3.28;;;1.20;;
49023;SDS011;34839;-33.872;151.172;2022-10-31T08:13:34;11.20;;;1.67;;
49023;SDS011;34839;-33.872;151.172;2022-10-31T08:16:02;2.72;;;1.00;;
49023;SDS011;34839;-33.872;151.172;2022-10-31T08:18:29;3.30;;;1.00;;
49023;SDS011;34839;-33.872;151.172;2022-10-31T08:20:57;1.38;;;0.70;;
49023;SDS011;34839;-33.872;151.172;2022-10-31T08:23:24;15.00;;;1.70;;
49023;SDS011;34839;-33.872;151.172;2022-10-31T08:25:51;3.65;;;1.55;;
49023;SDS011;34839;-33.872;151.172;2022-10-31T08:28:18;11.30;;;1.73;;
49023;SDS011;34839;-33.872;151.172;2022-10-31T08:30:46;3.25;;;0.90;;
49023;SDS011;34839;-33.872;151.172;2022-10-31T08:33:16;14.75;;;1.42;;
49023;SDS011;34839;-33.872;151.172;2022-10-31T08:35:43;1.85;;;0.70;;
49023;SDS011;34839;-33.872;151.172;2022-10-31T08:38:11;4.35;;;0.75;;
49023;SDS011;34839;-33.872;151.172;2022-10-31T08:40:39;4.60;;;1.52;;
49023;SDS011;34839;-33.872;151.172;2022-10-31T08:43:16;5.70;;;1.15;;
49023;SDS011;34839;-33.872;151.172;2022-10-31T08:45:44;1.23;;;0.65;;
49023;SDS011;34839;-33.872;151.172;2022-10-31T08:48:14;3.55;;;1.10;;
49023;SDS011;34839;-33.872;151.172;2022-10-31T08:50:43;5.13;;;1.00;;
49023;SDS011;34839;-33.872;151.172;2022-10-31T08:53:14;1.90;;;0.90;;
49023;SDS011;34839;-33.872;151.172;2022-10-31T08:55:42;5.97;;;1.10;;
49023;SDS011;34839;-33.872;151.172;2022-10-31T08:58:11;3.97;;;0.70;;
49023;SDS011;34839;-33.872;151.172;2022-10-31T09:00:38;2.35;;;0.82;;
49023;SDS011;34839;-33.872;151.172;2022-10-31T09:03:10;1.25;;;0.77;;
49023;SDS011;34839;-33.872;151.172;2022-10-31T09:05:38;2.92;;;0.90;;
49023;SDS011;34839;-33.872;151.172;2022-10-31T09:08:05;1.23;;;0.70;;
49023;SDS011;34839;-33.872;151.172;2022-10-31T09:10:34;0.90;;;0.70;;
49023;SDS011;34839;-33.872;151.172;2022-10-31T09:13:05;2.13;;;0.65;;
49023;SDS011;34839;-33.872;151.172;2022-10-31T09:15:33;2.00;;;0.73;;
49023;SDS011;34839;-33.872;151.172;2022-10-31T09:18:01;1.75;;;0.70;;
49023;SDS011;34839;-33.872;151.172;2022-10-31T09:20:28;1.40;;;0.60;;
49023;SDS011;34839;-33.872;151.172;2022-10-31T09:22:59;1.73;;;0.70;;
49023;SDS011;34839;-33.872;151.172;2022-10-31T09:25:27;2.05;;;0.80;;
49023;SDS011;34839;-33.872;151.172;2022-10-31T09:27:58;4.32;;;1.00;;
49023;SDS011;34839;-33.872;151.172;2022-10-31T09:30:30;2.58;;;0.90;;
49023;SDS011;34839;-33.872;151.172;2022-10-31T09:32:58;2.00;;;0.68;;
49023;SDS011;34839;-33.872;151.172;2022-10-31T09:35:25;3.15;;;0.80;;
49023;SDS011;34839;-33.872;151.172;2022-10-31T09:37:54;1.08;;;0.52;;
49023;SDS011;34839;-33.872;151.172;2022-10-31T09:40:21;3.80;;;0.63;;
49023;SDS011;34839;-33.872;151.172;2022-10-31T09:42:52;2.13;;;0.65;;
49023;SDS011;34839;-33.872;151.172;2022-10-31T09:45:26;1.10;;;0.80;;
49023;SDS011;34839;-33.872;151.172;2022-10-31T09:48:00;2.50;;;1.02;;
49023;SDS011;34839;-33.872;151.172;2022-10-31T09:53:02;0.75;;;0.55;;
49023;SDS011;34839;-33.872;151.172;2022-10-31T09:55:40;2.22;;;0.60;;
49023;SDS011;34839;-33.872;151.172;2022-10-31T09:58:10;2.92;;;0.63;;
49023;SDS011;34839;-33.872;151.172;2022-10-31T10:00:40;0.93;;;0.43;;
49023;SDS011;34839;-33.872;151.172;2022-10-31T10:05:53;1.17;;;0.70;;
49023;SDS011;34839;-33.872;151.172;2022-10-31T10:08:30;1.00;;;0.50;;
49023;SDS011;34839;-33.872;151.172;2022-10-31T10:26:46;1.60;;;0.40;;
49023;SDS011;34839;-33.872;151.172;2022-10-31T10:29:24;0.95;;;0.40;;
49023;SDS011;34839;-33.872;151.172;2022-10-31T10:31:53;1.35;;;0.50;;
49023;SDS011;34839;-33.872;151.172;2022-10-31T10:37:17;3.70;;;0.60;;
49023;SDS011;34839;-33.872;151.172;2022-10-31T10:39:45;2.92;;;0.63;;
49023;SDS011;34839;-33.872;151.172;2022-10-31T10:42:15;1.30;;;0.60;;
49023;SDS011;34839;-33.872;151.172;2022-10-31T10:45:06;1.23;;;0.60;;
49023;SDS011;34839;-33.872;151.172;2022-10-31T10:48:02;0.50;;;0.38;;
49023;SDS011;34839;-33.872;151.172;2022-10-31T10:50:35;2.30;;;0.63;;
49023;SDS011;34839;-33.872;151.172;2022-10-31T10:58:32;1.48;;;0.50;;
49023;SDS011;34839;-33.872;151.172;2022-10-31T11:00:59;0.82;;;0.40;;
49023;SDS011;34839;-33.872;151.172;2022-10-31T11:03:26;1.10;;;0.57;;
49023;SDS011;34839;-33.872;151.172;2022-10-31T11:05:54;1.80;;;0.50;;
49023;SDS011;34839;-33.872;151.172;2022-10-31T11:08:30;1.05;;;0.57;;
49023;SDS011;34839;-33.872;151.172;2022-10-31T11:13:25;1.50;;;0.80;;
49023;SDS011;34839;-33.872;151.172;2022-10-31T11:15:56;1.15;;;0.68;;
49023;SDS011;34839;-33.872;151.172;2022-10-31T11:18:26;2.63;;;0.60;;
49023;SDS011;34839;-33.872;151.172;2022-10-31T11:20:54;2.55;;;0.60;;
49023;SDS011;34839;-33.872;151.172;2022-10-31T11:23:23;0.80;;;0.60;;
49023;SDS011;34839;-33.872;151.172;2022-10-31T11:25:55;2.65;;;0.70;;
49023;SDS011;34839;-33.872;151.172;2022-10-31T11:28:23;1.77;;;0.60;;
49023;SDS011;34839;-33.872;151.172;2022-10-31T11:30:54;1.15;;;0.60;;
49023;SDS011;34839;-33.872;151.172;2022-10-31T11:35:55;2.40;;;0.75;;
49023;SDS011;34839;-33.872;151.172;2022-10-31T11:38:24;1.98;;;0.70;;
49023;SDS011;34839;-33.872;151.172;2022-10-31T11:41:09;2.92;;;0.75;;
49023;SDS011;34839;-33.872;151.172;2022-10-31T11:43:38;3.28;;;0.60;;
49023;SDS011;34839;-33.872;151.172;2022-10-31T11:46:10;2.47;;;0.77;;
49023;SDS011;34839;-33.872;151.172;2022-10-31T11:48:38;2.15;;;0.73;;
49023;SDS011;34839;-33.872;151.172;2022-10-31T11:51:05;1.67;;;0.80;;
49023;SDS011;34839;-33.872;151.172;2022-10-31T11:53:34;1.13;;;0.50;;
49023;SDS011;34839;-33.872;151.172;2022-10-31T11:56:12;1.10;;;0.50;;
49023;SDS011;34839;-33.872;151.172;2022-10-31T11:58:40;1.63;;;0.70;;
49023;SDS011;34839;-33.872;151.172;2022-10-31T12:01:25;1.27;;;0.60;;
49023;SDS011;34839;-33.872;151.172;2022-10-31T12:04:05;2.17;;;0.70;;
49023;SDS011;34839;-33.872;151.172;2022-10-31T12:06:34;2.15;;;0.85;;
49023;SDS011;34839;-33.872;151.172;2022-10-31T12:09:02;2.25;;;1.05;;
49023;SDS011;34839;-33.872;151.172;2022-10-31T12:29:26;6.20;;;1.42;;
49023;SDS011;34839;-33.872;151.172;2022-10-31T12:32:03;3.72;;;1.02;;
49023;SDS011;34839;-33.872;151.172;2022-10-31T12:45:25;3.28;;;1.58;;
49023;SDS011;34839;-33.872;151.172;2022-10-31T12:47:48;3.30;;;1.20;;
49023;SDS011;34839;-33.872;151.172;2022-10-31T12:58:10;3.22;;;1.38;;
49023;SDS011;34839;-33.872;151.172;2022-10-31T13:00:42;2.40;;;1.30;;
49023;SDS011;34839;-33.872;151.172;2022-10-31T13:06:02;1.23;;;0.98;;
49023;SDS011;34839;-33.872;151.172;2022-10-31T13:08:52;2.38;;;1.23;;
49023;SDS011;34839;-33.872;151.172;2022-10-31T13:12:04;4.25;;;1.35;;
49023;SDS011;34839;-33.872;151.172;2022-10-31T13:14:29;2.10;;;1.00;;
49023;SDS011;34839;-33.872;151.172;2022-10-31T13:16:59;2.83;;;1.10;;
49023;SDS011;34839;-33.872;151.172;2022-10-31T13:24:25;1.98;;;1.00;;
49023;SDS011;34839;-33.872;151.172;2022-10-31T13:26:55;5.28;;;1.40;;
49023;SDS011;34839;-33.872;151.172;2022-10-31T13:31:54;3.65;;;1.23;;
49023;SDS011;34839;-33.872;151.172;2022-10-31T13:34:30;3.10;;;1.38;;
49023;SDS011;34839;-33.872;151.172;2022-10-31T13:45:13;2.95;;;1.00;;
49023;SDS011;34839;-33.872;151.172;2022-10-31T13:47:41;1.43;;;0.97;;
49023;SDS011;34839;-33.872;151.172;2022-10-31T13:50:19;3.17;;;1.20;;
49023;SDS011;34839;-33.872;151.172;2022-10-31T13:52:47;1.38;;;1.00;;
49023;SDS011;34839;-33.872;151.172;2022-10-31T13:57:59;2.22;;;1.08;;
49023;SDS011;34839;-33.872;151.172;2022-10-31T14:00:26;1.35;;;0.82;;
49023;SDS011;34839;-33.872;151.172;2022-10-31T14:02:57;1.80;;;1.00;;
49023;SDS011;34839;-33.872;151.172;2022-10-31T14:05:34;2.75;;;0.93;;
49023;SDS011;34839;-33.872;151.172;2022-10-31T14:08:03;1.63;;;0.77;;
49023;SDS011;34839;-33.872;151.172;2022-10-31T14:15:31;2.05;;;1.00;;
49023;SDS011;34839;-33.872;151.172;2022-10-31T14:18:00;4.13;;;1.02;;
49023;SDS011;34839;-33.872;151.172;2022-10-31T14:25:50;2.90;;;0.90;;
49023;SDS011;34839;-33.872;151.172;2022-10-31T14:28:34;1.42;;;0.80;;
49023;SDS011;34839;-33.872;151.172;2022-10-31T14:31:01;2.40;;;0.93;;
49023;SDS011;34839;-33.872;151.172;2022-10-31T14:33:29;1.08;;;0.63;;
49023;SDS011;34839;-33.872;151.172;2022-10-31T14:36:04;2.63;;;0.65;;
49023;SDS011;34839;-33.872;151.172;2022-10-31T14:38:43;1.63;;;0.70;;
49023;SDS011;34839;-33.872;151.172;2022-10-31T14:46:46;1.70;;;0.63;;
49023;SDS011;34839;-33.872;151.172;2022-10-31T14:51:45;1.67;;;0.68;;
49023;SDS011;34839;-33.872;151.172;2022-10-31T14:54:19;1.38;;;0.55;;
49023;SDS011;34839;-33.872;151.172;2022-10-31T14:56:51;1.98;;;0.70;;
49023;SDS011;34839;-33.872;151.172;2022-10-31T14:59:20;1.65;;;0.60;;
49023;SDS011;34839;-33.872;151.172;2022-10-31T15:01:52;2.50;;;1.00;;
49023;SDS011;34839;-33.872;151.172;2022-10-31T15:04:22;1.30;;;0.70;;
49023;SDS011;34839;-33.872;151.172;2022-10-31T15:07:12;1.60;;;0.60;;
49023;SDS011;34839;-33.872;151.172;2022-10-31T15:09:37;2.17;;;0.70;;
49023;SDS011;34839;-33.872;151.172;2022-10-31T15:12:25;3.78;;;0.82;;
49023;SDS011;34839;-33.872;151.172;2022-10-31T15:14:53;2.80;;;0.90;;
49023;SDS011;34839;-33.872;151.172;2022-10-31T15:17:25;1.77;;;0.70;;
49023;SDS011;34839;-33.872;151.172;2022-10-31T15:19:53;1.75;;;0.70;;
49023;SDS011;34839;-33.872;151.172;2022-10-31T15:22:25;3.30;;;1.00;;
49023;SDS011;34839;-33.872;151.172;2022-10-31T15:25:01;2.22;;;0.80;;
49023;SDS011;34839;-33.872;151.172;2022-10-31T15:27:33;1.55;;;0.85;;
49023;SDS011;34839;-33.872;151.172;2022-10-31T15:32:53;1.55;;;0.75;;
49023;SDS011;34839;-33.872;151.172;2022-10-31T15:35:30;3.22;;;1.05;;
49023;SDS011;34839;-33.872;151.172;2022-10-31T15:38:06;2.72;;;1.00;;
49023;SDS011;34839;-33.872;151.172;2022-10-31T15:40:39;3.60;;;0.57;;
49023;SDS011;34839;-33.872;151.172;2022-10-31T15:43:10;2.30;;;0.70;;
49023;SDS011;34839;-33.872;151.172;2022-10-31T15:45:43;2.55;;;0.70;;
49023;SDS011;34839;-33.872;151.172;2022-10-31T15:48:24;2.28;;;0.70;;
49023;SDS011;34839;-33.872;151.172;2022-10-31T15:50:54;3.90;;;0.80;;
49023;SDS011;34839;-33.872;151.172;2022-10-31T15:53:35;1.95;;;0.60;;
49023;SDS011;34839;-33.872;151.172;2022-10-31T15:56:06;1.80;;;0.68;;
49023;SDS011;34839;-33.872;151.172;2022-10-31T15:58:39;1.23;;;0.60;;
49023;SDS011;34839;-33.872;151.172;2022-10-31T16:07:00;2.20;;;0.63;;
49023;SDS011;34839;-33.872;151.172;2022-10-31T16:09:28;1.45;;;0.73;;
49023;SDS011;34839;-33.872;151.172;2022-10-31T16:11:56;1.60;;;0.60;;
49023;SDS011;34839;-33.872;151.172;2022-10-31T16:14:27;1.70;;;0.70;;
49023;SDS011;34839;-33.872;151.172;2022-10-31T16:16:55;3.38;;;0.90;;
49023;SDS011;34839;-33.872;151.172;2022-10-31T16:19:24;1.70;;;0.60;;
49023;SDS011;34839;-33.872;151.172;2022-10-31T16:21:53;4.88;;;0.70;;
49023;SDS011;34839;-33.872;151.172;2022-10-31T16:24:31;1.08;;;0.50;;
49023;SDS011;34839;-33.872;151.172;2022-10-31T16:27:06;2.63;;;0.60;;
49023;SDS011;34839;-33.872;151.172;2022-10-31T16:29:43;2.83;;;0.63;;
49023;SDS011;34839;-33.872;151.172;2022-10-31T16:34:59;1.40;;;0.55;;
49023;SDS011;34839;-33.872;151.172;2022-10-31T16:39:53;2.40;;;0.60;;
49023;SDS011;34839;-33.872;151.172;2022-10-31T16:42:21;1.58;;;0.57;;
49023;SDS011;34839;-33.872;151.172;2022-10-31T16:44:48;3.53;;;0.80;;
49023;SDS011;34839;-33.872;151.172;2022-10-31T16:47:16;3.28;;;0.80;;
49023;SDS011;34839;-33.872;151.172;2022-10-31T16:49:45;2.45;;;0.95;;
49023;SDS011;34839;-33.872;151.172;2022-10-31T16:52:14;3.13;;;0.75;;
49023;SDS011;34839;-33.872;151.172;2022-10-31T16:54:41;1.73;;;0.50;;
49023;SDS011;34839;-33.872;151.172;2022-10-31T16:57:13;2.92;;;0.80;;
49023;SDS011;34839;-33.872;151.172;2022-10-31T16:59:41;3.22;;;0.98;;
49023;SDS011;34839;-33.872;151.172;2022-10-31T17:02:13;3.35;;;0.82;;
49023;SDS011;34839;-33.872;151.172;2022-10-31T17:04:40;2.67;;;0.70;;